Latest Weather Observations for Ulladulla

IDN60901

Issued at 6:05 pm EST Saturday 30 August 2014 (issued every 10 minutes, with the page automatically refreshed every 10 minutes)

About weather observations | Map of Canberra area stations | Latest observations for Canberra area | Other Formats
Station Details ID: 069138 Name: ULLADULLA AWS Lat: -35.36 Lon: 150.48 Height: 35.7 m
Data from the previous 72 hours. | See also: Recent months at Ulladulla
Date/Time
EST
Tmp

°C
App
Tmp
°C
Dew
Point
°C
Rel
Hum
%
Delta-T

°C
Wind Press
QNH
hPa
Press
MSL
hPa
Rain
since
9 am
mm
Dir
 
Spd
km/h
Gust
km/h
Spd
kts
Gust
kts
30/06:00pm 15.0 11.7 11.6 80 1.8 SSW 20 32 11 17 1022.9 1022.9 0.0
30/05:30pm 14.9 11.6 11.5 80 1.8 S 20 32 11 17 1022.9 - 0.0
30/05:00pm 15.1 11.0 11.3 78 2.0 S 24 35 13 19 1022.8 1022.8 0.0
30/04:30pm 15.1 10.8 10.7 75 2.3 SSW 24 35 13 19 1022.8 - 0.0
30/04:00pm 15.2 11.0 11.2 77 2.1 S 24 32 13 17 1022.9 1022.9 0.0
30/03:30pm 15.3 11.0 10.9 75 2.3 S 24 35 13 19 1023.0 - 0.0
30/03:00pm 15.0 10.7 10.6 75 2.3 SSW 24 37 13 20 1023.1 1023.1 0.0
30/02:30pm 15.1 10.5 10.9 76 2.2 S 26 39 14 21 1023.4 - 0.0
30/02:00pm 15.2 10.7 11.4 78 2.0 S 26 35 14 19 1023.7 1023.7 0.0
30/01:30pm 15.2 10.5 10.8 75 2.3 S 26 37 14 20 1023.8 - 0.0
30/01:00pm 15.6 10.6 11.0 74 2.4 SSW 28 43 15 23 1024.0 1024.1 0.0
30/12:30pm 15.7 10.4 11.1 74 2.5 S 30 43 16 23 1024.2 - 0.0
30/12:00pm 15.6 9.9 11.0 74 2.4 S 32 44 17 24 1024.6 1024.7 0.0
30/11:30am 15.7 11.5 11.1 74 2.5 SSW 24 37 13 20 1024.9 - 0.0
30/11:00am 15.0 9.6 11.0 77 2.1 S 30 43 16 23 1025.1 1025.2 0.0
30/10:30am 14.5 8.6 11.3 81 1.7 S 33 50 18 27 1025.4 - 0.0
30/10:27am 14.2 8.5 11.0 81 1.7 S 32 50 17 27 1025.3 - 0.0
30/10:00am 14.4 9.2 10.4 77 2.1 S 28 41 15 22 1025.4 1025.5 0.0
30/09:36am 13.7 8.1 10.3 80 1.8 S 30 48 16 26 1025.5 - 0.0
30/09:30am 13.9 8.3 10.1 78 2.0 S 30 43 16 23 1025.5 - 0.0
30/09:07am 14.0 8.1 9.2 73 2.4 S 30 48 16 26 1025.6 - 0.0
30/09:00am 13.9 8.3 8.9 72 2.5 S 28 43 15 23 1025.5 1025.6 0.4
30/08:33am 13.8 7.3 9.0 73 2.4 S 33 52 18 28 1025.5 - 0.4
30/08:30am 13.9 6.4 9.3 74 2.3 S 39 52 21 28 1025.6 - 0.4
30/08:00am 13.3 8.5 7.5 68 2.8 SSW 22 33 12 18 1025.6 1025.7 0.4
30/07:30am 13.1 8.7 7.5 69 2.7 SSW 20 32 11 17 1025.4 - 0.4
30/07:00am 12.8 8.5 7.0 68 2.8 SSW 19 30 10 16 1025.4 1025.5 0.4
30/06:30am 12.8 8.3 7.0 68 2.8 SSW 20 32 11 17 1025.2 - 0.4
30/06:00am 12.9 7.7 7.4 69 2.7 SSW 24 37 13 20 1024.9 1025.0 0.4
30/05:30am 12.8 8.0 7.5 70 2.6 SSW 22 32 12 17 1024.9 - 0.4
30/05:00am 12.5 7.5 6.5 67 2.8 SSW 22 32 12 17 1024.7 1024.8 0.4
30/04:30am 12.6 7.6 6.6 67 2.9 SSW 22 35 12 19 1024.8 - 0.4
30/04:00am 12.4 7.4 6.5 67 2.8 SSW 22 33 12 18 1024.9 1025.0 0.4
30/03:30am 12.4 7.1 6.7 68 2.7 SSW 24 35 13 19 1024.8 - 0.4
30/03:00am 12.3 7.3 6.6 68 2.7 SW 22 33 12 18 1024.8 1024.9 0.4
30/02:30am 12.4 7.5 6.7 68 2.7 SW 22 37 12 20 1025.1 - 0.4
30/02:00am 12.2 7.6 6.7 69 2.6 SW 20 33 11 18 1025.1 1025.2 0.4
30/01:30am 12.4 7.5 7.1 70 2.6 SW 22 35 12 19 1025.3 - 0.4
30/01:00am 12.4 8.0 7.5 72 2.4 SW 20 33 11 18 1025.5 1025.6 0.4
30/12:30am 12.4 8.6 7.5 72 2.4 SW 17 33 9 18 1025.7 - 0.4
30/12:00am 12.7 8.7 6.5 66 2.9 SW 17 28 9 15 1026.0 1026.0 0.4
 
Date/Time
EST
Tmp

°C
App
Tmp
°C
Dew
Point
°C
Rel
Hum
%
Delta-T

°C
Wind Press
QNH
hPa
Press
MSL
hPa
Rain
since
9 am
mm
Dir
 
Spd
km/h
Gust
km/h
Spd
kts
Gust
kts
29/11:47pm 13.8 9.3 5.9 59 3.8 SW 19 30 10 16 1026.1 - 0.4
29/11:30pm 14.4 6.7 7.2 62 3.5 S 37 48 20 26 1026.1 - 0.4
29/11:00pm 14.2 7.7 6.6 60 3.7 S 30 44 16 24 1026.2 1026.2 0.4
29/10:30pm 14.3 7.6 8.3 67 3.0 S 33 44 18 24 1026.2 - 0.4
29/10:00pm 14.3 5.7 6.6 60 3.7 S 41 54 22 29 1026.2 1026.2 0.4
29/09:30pm 14.2 7.4 6.8 61 3.6 S 32 46 17 25 1026.4 - 0.4
29/09:00pm 14.5 6.8 8.7 68 2.9 S 39 48 21 26 1026.6 1026.6 0.4
29/08:30pm 14.6 6.8 8.3 66 3.2 S 39 52 21 28 1026.6 - 0.4
29/08:00pm 14.7 7.3 8.2 65 3.2 S 37 48 20 26 1026.6 1026.6 0.4
29/07:32pm 14.7 8.1 8.6 67 3.1 S 33 52 18 28 1026.7 - 0.4
29/07:30pm 14.7 8.1 8.6 67 3.1 S 33 48 18 26 1026.7 - 0.4
29/07:00pm 14.9 8.5 9.3 69 2.9 S 33 46 18 25 1026.5 1026.5 0.4
29/06:30pm 14.7 7.7 8.6 67 3.1 S 35 46 19 25 1026.3 - 0.4
29/06:00pm 14.9 7.8 9.5 70 2.8 S 37 48 20 26 1026.0 1026.0 0.4
29/05:30pm 14.8 8.0 9.4 70 2.8 S 35 46 19 25 1025.6 - 0.4
29/05:00pm 15.0 8.3 9.8 71 2.7 S 35 48 19 26 1025.5 1025.6 0.4
29/04:30pm 14.9 8.6 11.1 78 2.0 S 35 44 19 24 1025.4 - 0.4
29/04:00pm 15.1 8.8 10.9 76 2.2 S 35 44 19 24 1025.3 1025.4 0.4
29/03:30pm 14.9 9.0 10.5 75 2.3 S 32 41 17 22 1025.3 - 0.4
29/03:00pm 14.4 8.6 10.8 79 1.9 S 32 41 17 22 1025.5 1025.6 0.4
29/02:31pm 15.4 9.0 10.6 73 2.5 S 35 54 19 29 1025.5 - 0.2
29/02:30pm 15.3 9.2 10.3 72 2.6 S 33 46 18 25 1025.5 - 0.2
29/02:00pm 16.1 11.4 10.8 71 2.8 S 26 37 14 20 1025.7 1025.8 0.2
29/01:30pm 15.9 11.8 10.2 69 3.0 S 22 32 12 17 1026.0 - 0.2
29/01:00pm 15.5 10.0 10.5 72 2.6 S 30 44 16 24 1026.3 1026.3 0.2
29/12:30pm 14.3 10.4 12.0 86 1.2 S 24 39 13 21 1026.5 - 0.2
29/12:11pm 14.7 9.5 10.3 75 2.3 S 28 48 15 26 1026.7 - 0.0
29/12:00pm 16.3 12.5 11.0 71 2.8 S 22 35 12 19 1026.8 1026.8 0.0
29/11:30am 14.8 9.5 10.0 73 2.5 S 28 37 15 20 1027.2 - 0.0
29/11:00am 15.7 12.3 10.5 71 2.7 S 19 28 10 15 1027.3 1027.3 0.0
29/10:30am 15.5 12.5 10.7 73 2.5 SSW 17 26 9 14 1027.5 - 0.0
29/10:00am 15.1 11.8 10.9 76 2.2 SSW 19 26 10 14 1027.7 1027.7 0.0
29/09:30am 13.2 10.1 10.4 83 1.5 S 17 28 9 15 1028.0 - 0.0
29/09:00am 14.3 12.8 10.7 79 1.9 SW 9 15 5 8 1028.0 1028.0 0.6
29/08:30am 14.2 11.5 10.2 77 2.1 SW 15 22 8 12 1027.8 - 0.6
29/08:00am 13.2 11.7 10.4 83 1.4 SW 9 17 5 9 1027.9 1027.9 0.6
29/07:30am 11.4 9.2 9.3 87 1.1 SW 11 15 6 8 1027.8 - 0.6
29/07:00am 10.8 8.9 9.2 90 0.8 WSW 9 15 5 8 1027.6 1027.6 0.6
29/06:30am 10.9 9.2 9.7 92 0.6 SW 9 15 5 8 1027.3 - 0.6
29/06:00am 10.7 8.9 9.5 92 0.6 WSW 9 13 5 7 1027.1 1027.1 0.6
29/05:30am 10.8 9.4 9.6 92 0.6 WSW 7 13 4 7 1026.8 - 0.6
29/05:00am 11.1 9.8 10.0 93 0.6 WSW 7 11 4 6 1026.9 1026.9 0.6
29/04:30am 11.3 9.7 10.2 93 0.6 SW 9 13 5 7 1026.9 - 0.6
29/04:00am 11.4 9.5 10.5 94 0.5 WSW 11 17 6 9 1026.9 1026.9 0.6
29/03:30am 11.3 9.4 10.5 95 0.4 WSW 11 15 6 8 1027.0 - 0.6
29/03:00am 11.1 9.1 10.2 94 0.5 SW 11 19 6 10 1027.0 1027.0 0.6
29/02:30am 11.1 9.9 10.2 94 0.5 WSW 7 13 4 7 1027.2 - 0.6
29/02:00am 10.9 9.8 10.0 94 0.5 WSW 6 9 3 5 1027.4 1027.4 0.6
29/01:30am 10.8 9.1 9.9 94 0.5 W 9 13 5 7 1027.7 - 0.6
29/01:00am 10.8 9.1 9.7 93 0.6 WSW 9 13 5 7 1028.0 1028.0 0.6
29/12:30am 10.9 9.2 9.8 93 0.6 W 9 13 5 7 1028.2 - 0.6
29/12:00am 11.0 9.4 10.1 94 0.5 WSW 9 13 5 7 1028.4 1028.4 0.6
 
Date/Time
EST
Tmp

°C
App
Tmp
°C
Dew
Point
°C
Rel
Hum
%
Delta-T

°C
Wind Press
QNH
hPa
Press
MSL
hPa
Rain
since
9 am
mm
Dir
 
Spd
km/h
Gust
km/h
Spd
kts
Gust
kts
28/11:30pm 10.8 9.1 9.7 93 0.6 WSW 9 11 5 6 1028.6 - 0.6
28/11:00pm 11.2 9.9 10.1 93 0.6 WSW 7 11 4 6 1028.6 1028.6 0.6
28/10:30pm 11.4 10.1 10.0 91 0.7 WSW 7 11 4 6 1028.8 - 0.6
28/10:00pm 11.9 10.7 10.3 90 0.8 WSW 7 11 4 6 1028.9 1028.9 0.6
28/09:30pm 11.9 10.6 10.1 89 0.9 WSW 7 11 4 6 1029.0 - 0.2
28/09:00pm 11.8 10.5 9.9 88 1.0 W 7 9 4 5 1028.8 1028.8 0.2
28/08:30pm 11.9 10.6 9.8 87 1.1 WSW 7 9 4 5 1028.9 - 0.2
28/08:00pm 12.0 10.8 9.6 85 1.2 WSW 6 9 3 5 1028.8 1028.8 0.2
28/07:30pm 12.5 11.3 9.7 83 1.4 WSW 6 11 3 6 1028.7 - 0.2
28/07:00pm 13.8 12.1 9.8 77 2.0 SSW 9 13 5 7 1028.6 1028.6 0.2
28/06:30pm 14.6 12.4 9.2 70 2.8 SSE 11 15 6 8 1028.5 - 0.2
28/06:00pm 14.4 12.1 9.0 70 2.7 S 11 17 6 9 1028.4 1028.4 0.2
28/05:30pm 14.4 12.2 9.2 71 2.7 SSE 11 17 6 9 1028.2 - 0.2
28/05:00pm 14.4 12.0 11.4 82 1.6 S 15 20 8 11 1028.0 1028.0 0.2
28/04:30pm 14.9 10.9 11.9 82 1.6 S 24 28 13 15 1027.8 - 0.2
28/04:00pm 14.7 11.5 12.0 84 1.5 S 20 26 11 14 1027.6 1027.6 0.2
28/03:30pm 14.3 12.5 12.0 86 1.2 S 13 19 7 10 1027.6 - 0.2
28/03:00pm 15.1 12.1 11.9 81 1.7 S 19 30 10 16 1027.5 1027.5 0.0
28/02:30pm 15.1 12.6 12.4 84 1.5 SSW 17 26 9 14 1027.5 - 0.0
28/02:00pm 14.4 11.1 11.7 84 1.4 S 20 33 11 18 1027.7 1027.7 0.0
28/01:30pm 15.8 12.7 12.2 79 2.0 S 20 30 11 16 1027.8 - 0.0
28/01:00pm 15.8 13.9 11.8 77 2.2 SSW 13 19 7 10 1027.9 1027.9 0.0
28/12:30pm 15.5 13.3 12.1 80 1.9 SSW 15 22 8 12 1028.2 - 0.0
28/12:00pm 14.2 11.3 11.0 81 1.7 SSW 17 24 9 13 1028.4 1028.4 0.0
28/11:30am 15.1 12.6 12.2 83 1.6 SSW 17 24 9 13 1028.9 - 0.0
28/11:00am 13.8 11.0 11.5 86 1.2 SSW 17 28 9 15 1029.2 1029.2 0.0
28/10:30am 14.0 12.0 12.7 92 0.7 SSW 15 22 8 12 1029.4 - 0.0
28/10:00am 12.4 10.1 11.6 95 0.4 SW 15 22 8 12 1029.5 1029.5 0.0
28/09:30am 12.1 10.4 11.3 95 0.4 SSW 11 17 6 9 1029.6 - 0.0
28/09:00am 11.8 9.6 10.7 93 0.6 SW 13 24 7 13 1029.3 1029.3 3.4
28/08:30am 11.0 8.5 9.6 91 0.7 SW 13 24 7 13 1029.1 - 3.2
28/08:00am 10.7 8.0 9.0 89 0.8 SW 13 22 7 12 1028.9 1028.9 3.0
28/07:30am 10.5 7.4 8.9 90 0.8 SW 15 24 8 13 1028.7 - 3.0
28/07:00am 10.5 7.3 8.4 87 1.0 SW 15 26 8 14 1028.3 1028.3 2.4
28/06:30am 10.0 7.1 8.3 89 0.8 SW 13 19 7 10 1028.1 - 2.4
28/06:00am 10.1 6.9 8.4 89 0.8 SW 15 22 8 12 1027.9 1027.9 2.4
28/05:30am 10.2 7.0 8.6 90 0.8 SW 15 20 8 11 1027.6 - 2.4
28/05:00am 10.4 7.7 8.8 90 0.8 SW 13 22 7 12 1027.4 1027.4 2.2
28/04:30am 10.9 7.7 8.5 85 1.2 SSW 15 22 8 12 1027.3 - 0.4
28/04:00am 10.8 8.0 8.4 85 1.2 SW 13 20 7 11 1027.2 1027.2 0.2
28/03:30am 10.9 7.8 8.7 86 1.1 SSW 15 24 8 13 1027.2 - 0.2
28/03:00am 10.9 7.4 8.8 87 1.0 SW 17 24 9 13 1027.2 1027.2 0.2
28/02:30am 11.3 8.6 8.9 85 1.2 SW 13 19 7 10 1027.5 - 0.2
28/02:00am 11.5 8.8 8.9 84 1.3 SW 13 20 7 11 1027.5 1027.5 0.0
28/01:30am 12.2 9.1 9.0 81 1.6 SSW 15 20 8 11 1027.7 - 0.0
28/01:00am 12.6 9.8 8.7 77 1.9 SW 13 22 7 12 1028.0 1028.0 0.0
28/12:30am 14.6 10.7 9.6 72 2.6 S 20 32 11 17 1027.9 - 0.0
28/12:00am 14.8 9.8 8.1 64 3.3 S 24 37 13 20 1027.9 1027.9 0.0
 
Date/Time
EST
Tmp

°C
App
Tmp
°C
Dew
Point
°C
Rel
Hum
%
Delta-T

°C
Wind Press
QNH
hPa
Press
MSL
hPa
Rain
since
9 am
mm
Dir
 
Spd
km/h
Gust
km/h
Spd
kts
Gust
kts
27/11:30pm 14.9 10.2 9.1 68 3.0 S 24 32 13 17 1027.8 - 0.0
27/11:00pm 14.7 9.8 8.4 66 3.2 S 24 32 13 17 1028.0 1028.0 0.0
27/10:30pm 14.6 10.6 9.0 69 2.9 SSE 20 30 11 16 1028.2 - 0.0
27/10:00pm 14.6 10.2 9.0 69 2.8 S 22 30 12 16 1028.0 1028.0 0.0
27/09:30pm 14.5 10.5 9.1 70 2.8 S 20 30 11 16 1028.1 - 0.0
27/09:00pm 14.6 10.9 9.4 71 2.7 SSE 19 28 10 15 1028.2 1028.2 0.0
27/08:30pm 14.7 11.1 9.9 73 2.5 SSE 19 30 10 16 1028.2 - 0.0
27/08:00pm 14.6 10.7 9.4 71 2.7 SSE 20 28 11 15 1028.2 1028.2 0.0
27/07:30pm 14.9 11.2 9.5 70 2.8 SSE 19 28 10 15 1028.2 - 0.0
27/07:00pm 14.6 11.2 9.2 70 2.7 SSE 17 26 9 14 1028.0 1028.0 0.0
27/06:30pm 14.7 11.1 9.9 73 2.5 SSE 19 26 10 14 1027.7 - 0.0

Latest Capital City Observations: Canberra | Sydney | Melbourne | Brisbane | Adelaide | Perth | Hobart | Darwin

Other Formats:

Comma delimited format used in spreadsheet applications
http://www.bom.gov.au/fwo/IDN60903/IDN60903.94938.axf

JavaScript Object Notation format (JSON) in row-major order
http://www.bom.gov.au/fwo/IDN60903/IDN60903.94938.json